GEC2758 EHAM-UUEE
Flight info
| Callsign | GEC2758 |
|---|---|
| Flight time | 2h 54m |
| Altitude | 35000 |
| Route | ARNEM L620 HMM DCT NOMKA DCT HOZ DCT POGAB/N0488F310 L735 GOVEN/N0475F350 L979 ENOBI/K0880F350 L979 MATUS N869 LAPKI L999 AGLAN M864 DIPOP DIPOP3E |
| Aircraft | B77L/H-SDE1E2E3FGHIJ2J3J4J5M1RWXY/LB1D1 |
Departure
| Time | 2026-05-05 13:35 |
|---|---|
| Airport | Amsterdam Airport Schiphol (EHAM) |
Arrival
| Time | 2026-05-05 16:30 |
|---|---|
| Airport | Sheremetyevo International Airport (UUEE) |
| Time | Latitude | Longitude | Altitude | Speed | Heading |
|---|---|---|---|---|---|
| 2026-05-05 12:23 | 52.29595 | 4.74622 | 2 ft | 0 kts | 327° |
| 2026-05-05 13:26 | 52.29575 | 4.74643 | 3 ft | 4 kts | 328° |
| 2026-05-05 13:26 | 52.29552 | 4.74666 | 3 ft | 3 kts | 329° |
| 2026-05-05 13:27 | 52.29531 | 4.74681 | 2 ft | 4 kts | 10° |
| 2026-05-05 13:27 | 52.29516 | 4.74659 | 2 ft | 4 kts | 71° |
| 2026-05-05 13:27 | 52.29508 | 4.74625 | 2 ft | 1 kts | 58° |
| 2026-05-05 13:27 | 52.29506 | 4.74619 | 2 ft | 0 kts | 58° |
| 2026-05-05 13:30 | 52.29527 | 4.74675 | 2 ft | 16 kts | 58° |
| 2026-05-05 13:30 | 52.29592 | 4.74849 | 3 ft | 18 kts | 58° |
| 2026-05-05 13:30 | 52.29659 | 4.75024 | 2 ft | 18 kts | 58° |
| 2026-05-05 13:30 | 52.29721 | 4.75183 | 2 ft | 10 kts | 57° |
| 2026-05-05 13:31 | 52.29769 | 4.75267 | 2 ft | 10 kts | 17° |
| 2026-05-05 13:31 | 52.29830 | 4.75211 | 2 ft | 10 kts | 313° |
| 2026-05-05 13:31 | 52.29879 | 4.75123 | 2 ft | 11 kts | 311° |
| 2026-05-05 13:31 | 52.29950 | 4.74991 | 2 ft | 19 kts | 311° |
| 2026-05-05 13:32 | 52.30036 | 4.74834 | 2 ft | 19 kts | 312° |
| 2026-05-05 13:32 | 52.30121 | 4.74676 | 2 ft | 19 kts | 310° |
| 2026-05-05 13:32 | 52.30177 | 4.74570 | 2 ft | 19 kts | 310° |
| 2026-05-05 13:32 | 52.30261 | 4.74410 | 2 ft | 19 kts | 311° |
| 2026-05-05 13:33 | 52.30310 | 4.74240 | 2 ft | 14 kts | 262° |
| 2026-05-05 13:33 | 52.30297 | 4.74082 | 2 ft | 14 kts | 262° |
| 2026-05-05 13:33 | 52.30223 | 4.73918 | 2 ft | 14 kts | 220° |
| 2026-05-05 13:33 | 52.30192 | 4.73774 | 2 ft | 15 kts | 295° |
| 2026-05-05 13:34 | 52.30254 | 4.73741 | -1 ft | 13 kts | 1° |
| 2026-05-05 13:34 | 52.30284 | 4.73743 | -3 ft | 0 kts | 2° |
| 2026-05-05 13:35 | 52.30342 | 4.73746 | -3 ft | 40 kts | 2° |
| 2026-05-05 13:35 | 52.30957 | 4.73803 | 4 ft | 135 kts | 3° |
| 2026-05-05 13:35 | 52.32168 | 4.73854 | 87 ft | 200 kts | 2° |
| 2026-05-05 13:35 | 52.33500 | 4.74011 | 1150 ft | 187 kts | 9° |
| 2026-05-05 13:36 | 52.34763 | 4.74664 | 2113 ft | 197 kts | 25° |
| 2026-05-05 13:36 | 52.36102 | 4.75647 | 2558 ft | 229 kts | 24° |
| 2026-05-05 13:36 | 52.37604 | 4.76775 | 3262 ft | 241 kts | 29° |
| 2026-05-05 13:36 | 52.38903 | 4.78565 | 3915 ft | 251 kts | 47° |
| 2026-05-05 13:37 | 52.40107 | 4.80714 | 4735 ft | 260 kts | 46° |
| 2026-05-05 13:37 | 52.41369 | 4.82879 | 5621 ft | 264 kts | 48° |
| 2026-05-05 13:37 | 52.42278 | 4.85480 | 6289 ft | 272 kts | 77° |
| 2026-05-05 13:37 | 52.42396 | 4.88581 | 7052 ft | 275 kts | 90° |
| 2026-05-05 13:38 | 52.42396 | 4.91755 | 7841 ft | 281 kts | 89° |
| 2026-05-05 13:38 | 52.42409 | 4.94965 | 8713 ft | 284 kts | 90° |
| 2026-05-05 13:38 | 52.42118 | 4.98173 | 9385 ft | 290 kts | 111° |
| 2026-05-05 13:38 | 52.41227 | 5.01139 | 10173 ft | 293 kts | 119° |
| 2026-05-05 13:39 | 52.40187 | 5.04125 | 10655 ft | 311 kts | 120° |
| 2026-05-05 13:39 | 52.39058 | 5.07313 | 10879 ft | 338 kts | 120° |
| 2026-05-05 13:39 | 52.38773 | 5.08120 | 10931 ft | 344 kts | 120° |
| 2026-05-05 13:40 | 52.37556 | 5.11560 | 11174 ft | 368 kts | 120° |
| 2026-05-05 13:40 | 52.36259 | 5.15242 | 11810 ft | 379 kts | 120° |
| 2026-05-05 13:40 | 52.34936 | 5.19013 | 12594 ft | 385 kts | 120° |
| 2026-05-05 13:41 | 52.33597 | 5.22837 | 13450 ft | 389 kts | 120° |
| 2026-05-05 13:41 | 52.32245 | 5.26695 | 14329 ft | 393 kts | 120° |
| 2026-05-05 13:41 | 52.30960 | 5.30359 | 15111 ft | 397 kts | 120° |
| 2026-05-05 13:41 | 52.29581 | 5.34295 | 15899 ft | 402 kts | 120° |
| 2026-05-05 13:42 | 52.28180 | 5.38289 | 16695 ft | 407 kts | 120° |
| 2026-05-05 13:42 | 52.26767 | 5.42312 | 17471 ft | 412 kts | 120° |
| 2026-05-05 13:42 | 52.25310 | 5.46446 | 18259 ft | 416 kts | 120° |
| 2026-05-05 13:42 | 52.23881 | 5.50500 | 19006 ft | 420 kts | 120° |
| 2026-05-05 13:43 | 52.22505 | 5.54813 | 19712 ft | 425 kts | 114° |
| 2026-05-05 13:43 | 52.21395 | 5.59319 | 20372 ft | 431 kts | 112° |
| 2026-05-05 13:43 | 52.20311 | 5.63886 | 21045 ft | 435 kts | 112° |
| 2026-05-05 13:43 | 52.19224 | 5.68455 | 21690 ft | 440 kts | 112° |
| 2026-05-05 13:44 | 52.18089 | 5.73174 | 22345 ft | 444 kts | 112° |
| 2026-05-05 13:44 | 52.16949 | 5.77870 | 22938 ft | 448 kts | 112° |
| 2026-05-05 13:44 | 52.15806 | 5.82546 | 23513 ft | 452 kts | 112° |
| 2026-05-05 13:44 | 52.14632 | 5.87321 | 24101 ft | 456 kts | 112° |
| 2026-05-05 13:45 | 52.13447 | 5.92137 | 24667 ft | 460 kts | 113° |
| 2026-05-05 13:45 | 52.12253 | 5.96985 | 25228 ft | 464 kts | 113° |
| 2026-05-05 13:45 | 52.11043 | 6.01881 | 25776 ft | 468 kts | 113° |
| 2026-05-05 13:45 | 52.09912 | 6.06845 | 26288 ft | 472 kts | 109° |
| 2026-05-05 13:46 | 52.09063 | 6.12041 | 26779 ft | 477 kts | 102° |
| 2026-05-05 13:46 | 52.08514 | 6.17369 | 27269 ft | 480 kts | 100° |
| 2026-05-05 13:46 | 52.07997 | 6.22749 | 27724 ft | 484 kts | 100° |
| 2026-05-05 13:46 | 52.07468 | 6.28165 | 28156 ft | 487 kts | 100° |
| 2026-05-05 13:47 | 52.06921 | 6.33619 | 28572 ft | 490 kts | 101° |
| 2026-05-05 13:47 | 52.06359 | 6.39092 | 28956 ft | 493 kts | 101° |
| 2026-05-05 13:47 | 52.05783 | 6.44608 | 29329 ft | 496 kts | 101° |
| 2026-05-05 13:47 | 52.05201 | 6.50130 | 29682 ft | 498 kts | 101° |
| 2026-05-05 13:48 | 52.04610 | 6.55698 | 30048 ft | 500 kts | 101° |
| 2026-05-05 13:48 | 52.04019 | 6.61259 | 30489 ft | 499 kts | 101° |
| 2026-05-05 13:48 | 52.03430 | 6.66802 | 30966 ft | 498 kts | 101° |
| 2026-05-05 13:48 | 52.02837 | 6.72343 | 31432 ft | 497 kts | 102° |
| 2026-05-05 13:49 | 52.02206 | 6.77837 | 31829 ft | 495 kts | 104° |
| 2026-05-05 13:49 | 52.01371 | 6.83252 | 32216 ft | 495 kts | 107° |
| 2026-05-05 13:49 | 52.00485 | 6.88655 | 32582 ft | 495 kts | 107° |
| 2026-05-05 13:49 | 51.99600 | 6.94042 | 32963 ft | 494 kts | 107° |
| 2026-05-05 13:50 | 51.98732 | 6.99419 | 33373 ft | 492 kts | 107° |
| 2026-05-05 13:50 | 51.97873 | 7.04790 | 33812 ft | 490 kts | 107° |
| 2026-05-05 13:50 | 51.97012 | 7.10125 | 34167 ft | 490 kts | 107° |
| 2026-05-05 13:50 | 51.96105 | 7.15455 | 34469 ft | 490 kts | 109° |
| 2026-05-05 13:51 | 51.95135 | 7.20740 | 34750 ft | 490 kts | 109° |
| 2026-05-05 13:51 | 51.94131 | 7.26044 | 34844 ft | 494 kts | 109° |
| 2026-05-05 13:51 | 51.92106 | 7.36724 | 34881 ft | 494 kts | 109° |
| 2026-05-05 13:52 | 51.90124 | 7.47302 | 34893 ft | 490 kts | 109° |
| 2026-05-05 13:52 | 51.88148 | 7.57839 | 34907 ft | 491 kts | 109° |
| 2026-05-05 13:53 | 51.87149 | 7.63140 | 35041 ft | 494 kts | 109° |
| 2026-05-05 13:53 | 51.86146 | 7.68445 | 35378 ft | 492 kts | 109° |
| 2026-05-05 13:53 | 51.85246 | 7.73776 | 35735 ft | 491 kts | 105° |
| 2026-05-05 13:53 | 51.84513 | 7.79112 | 36043 ft | 491 kts | 104° |
| 2026-05-05 13:54 | 51.83791 | 7.84569 | 36299 ft | 492 kts | 104° |
| 2026-05-05 13:54 | 51.83081 | 7.89983 | 36541 ft | 492 kts | 104° |
| 2026-05-05 13:54 | 51.82369 | 7.95384 | 36802 ft | 492 kts | 104° |
| 2026-05-05 13:54 | 51.81645 | 8.00813 | 36853 ft | 493 kts | 104° |
| 2026-05-05 13:55 | 51.80188 | 8.11557 | 36874 ft | 484 kts | 104° |
| 2026-05-05 13:55 | 51.78758 | 8.21956 | 36875 ft | 479 kts | 104° |
| 2026-05-05 13:56 | 51.77302 | 8.32470 | 36875 ft | 480 kts | 104° |
| 2026-05-05 13:56 | 51.75834 | 8.42986 | 36874 ft | 481 kts | 104° |
| 2026-05-05 13:57 | 51.74349 | 8.53528 | 36865 ft | 482 kts | 104° |
| 2026-05-05 13:57 | 51.72860 | 8.64065 | 36861 ft | 483 kts | 105° |
| 2026-05-05 13:58 | 51.71357 | 8.74621 | 36862 ft | 483 kts | 105° |
| 2026-05-05 13:58 | 51.69844 | 8.85173 | 36861 ft | 483 kts | 105° |
| 2026-05-05 13:59 | 51.68243 | 8.96248 | 36861 ft | 483 kts | 105° |
| 2026-05-05 14:00 | 51.67408 | 9.01997 | 36863 ft | 482 kts | 105° |
| 2026-05-05 14:00 | 51.65612 | 9.14277 | 36856 ft | 482 kts | 105° |
| 2026-05-05 14:01 | 51.64070 | 9.24770 | 36852 ft | 482 kts | 105° |
| 2026-05-05 14:01 | 51.62513 | 9.35269 | 36851 ft | 482 kts | 105° |
| 2026-05-05 14:02 | 51.60947 | 9.45764 | 36841 ft | 482 kts | 105° |
| 2026-05-05 14:02 | 51.59375 | 9.56236 | 36840 ft | 482 kts | 105° |
| 2026-05-05 14:03 | 51.57790 | 9.66718 | 36841 ft | 483 kts | 105° |
| 2026-05-05 14:03 | 51.56194 | 9.77202 | 36843 ft | 483 kts | 105° |
| 2026-05-05 14:04 | 51.54590 | 9.87679 | 36840 ft | 484 kts | 105° |
| 2026-05-05 14:04 | 51.52974 | 9.98173 | 36844 ft | 484 kts | 106° |
| 2026-05-05 14:05 | 51.51345 | 10.08672 | 36844 ft | 485 kts | 106° |
| 2026-05-05 14:05 | 51.49704 | 10.19178 | 36853 ft | 485 kts | 106° |
| 2026-05-05 14:06 | 51.48057 | 10.29665 | 36856 ft | 485 kts | 106° |
| 2026-05-05 14:06 | 51.46402 | 10.40137 | 36855 ft | 485 kts | 106° |
| 2026-05-05 14:07 | 51.45431 | 10.50835 | 36857 ft | 487 kts | 91° |
| 2026-05-05 14:07 | 51.46128 | 10.61616 | 36859 ft | 488 kts | 79° |
| 2026-05-05 14:08 | 51.47563 | 10.72268 | 36860 ft | 488 kts | 78° |
| 2026-05-05 14:08 | 51.48994 | 10.82906 | 36864 ft | 488 kts | 79° |
| 2026-05-05 14:09 | 51.50373 | 10.93578 | 36863 ft | 488 kts | 79° |
| 2026-05-05 14:09 | 51.51723 | 11.04271 | 36863 ft | 489 kts | 79° |
| 2026-05-05 14:10 | 51.53058 | 11.14966 | 36858 ft | 488 kts | 79° |
| 2026-05-05 14:10 | 51.54383 | 11.25656 | 36862 ft | 488 kts | 79° |
| 2026-05-05 14:11 | 51.55692 | 11.36265 | 36860 ft | 487 kts | 79° |
| 2026-05-05 14:11 | 51.57002 | 11.46949 | 36861 ft | 487 kts | 79° |
| 2026-05-05 14:12 | 51.58295 | 11.57636 | 36861 ft | 487 kts | 79° |
| 2026-05-05 14:12 | 51.59582 | 11.68338 | 36860 ft | 488 kts | 79° |
| 2026-05-05 14:13 | 51.60862 | 11.79061 | 36863 ft | 489 kts | 79° |
| 2026-05-05 14:13 | 51.62135 | 11.89811 | 36857 ft | 489 kts | 79° |
| 2026-05-05 14:14 | 51.63397 | 12.00563 | 36864 ft | 489 kts | 80° |
| 2026-05-05 14:14 | 51.64646 | 12.11323 | 36863 ft | 489 kts | 80° |
| 2026-05-05 14:15 | 51.65888 | 12.22084 | 36861 ft | 490 kts | 80° |
| 2026-05-05 14:15 | 51.67125 | 12.32877 | 36857 ft | 490 kts | 80° |
| 2026-05-05 14:16 | 51.68341 | 12.43603 | 36851 ft | 490 kts | 80° |
| 2026-05-05 14:16 | 51.69356 | 12.52593 | 36851 ft | 490 kts | 80° |
| 2026-05-05 14:17 | 51.70751 | 12.65101 | 36851 ft | 490 kts | 80° |
| 2026-05-05 14:17 | 51.71754 | 12.74166 | 36849 ft | 489 kts | 80° |
| 2026-05-05 14:18 | 51.72937 | 12.84949 | 36851 ft | 488 kts | 81° |
| 2026-05-05 14:18 | 51.74108 | 12.95711 | 36854 ft | 486 kts | 81° |
| 2026-05-05 14:19 | 51.75265 | 13.06449 | 36855 ft | 485 kts | 81° |
| 2026-05-05 14:19 | 51.75430 | 13.07989 | 36856 ft | 485 kts | 81° |
| 2026-05-05 14:20 | 51.76139 | 13.14612 | 36861 ft | 485 kts | 81° |
| 2026-05-05 14:20 | 51.77271 | 13.25372 | 36863 ft | 485 kts | 81° |
| 2026-05-05 14:21 | 51.78365 | 13.36126 | 36864 ft | 486 kts | 81° |
| 2026-05-05 14:21 | 51.79447 | 13.46907 | 36860 ft | 486 kts | 81° |
| 2026-05-05 14:22 | 51.80515 | 13.57623 | 36856 ft | 486 kts | 81° |
| 2026-05-05 14:22 | 51.81593 | 13.68487 | 36851 ft | 487 kts | 81° |
| 2026-05-05 14:23 | 51.82651 | 13.79276 | 36853 ft | 487 kts | 81° |
| 2026-05-05 14:23 | 51.83701 | 13.90082 | 36859 ft | 487 kts | 81° |
| 2026-05-05 14:24 | 51.85260 | 14.00738 | 36853 ft | 488 kts | 71° |
| 2026-05-05 14:24 | 51.87943 | 14.10716 | 36852 ft | 487 kts | 64° |
| 2026-05-05 14:25 | 51.90830 | 14.20644 | 36851 ft | 487 kts | 65° |
| 2026-05-05 14:25 | 51.93589 | 14.30681 | 36851 ft | 488 kts | 66° |
| 2026-05-05 14:26 | 51.96331 | 14.40740 | 36855 ft | 488 kts | 66° |
| 2026-05-05 14:26 | 51.99074 | 14.50804 | 36842 ft | 487 kts | 66° |
| 2026-05-05 14:27 | 52.01811 | 14.60856 | 36835 ft | 487 kts | 66° |
| 2026-05-05 14:27 | 52.04540 | 14.70925 | 36846 ft | 486 kts | 66° |
| 2026-05-05 14:28 | 52.06814 | 14.81241 | 36856 ft | 486 kts | 75° |
| 2026-05-05 14:28 | 52.08472 | 14.91888 | 36856 ft | 486 kts | 76° |
| 2026-05-05 14:29 | 52.10113 | 15.02544 | 36854 ft | 486 kts | 76° |
| 2026-05-05 14:29 | 52.11790 | 15.13205 | 36852 ft | 486 kts | 76° |
| 2026-05-05 14:30 | 52.13472 | 15.23875 | 36853 ft | 487 kts | 76° |
| 2026-05-05 14:30 | 52.15139 | 15.34548 | 36858 ft | 486 kts | 76° |
| 2026-05-05 14:31 | 52.16794 | 15.45209 | 36859 ft | 485 kts | 76° |
| 2026-05-05 14:31 | 52.18444 | 15.55864 | 36865 ft | 485 kts | 76° |
| 2026-05-05 14:32 | 52.20085 | 15.66527 | 36859 ft | 485 kts | 76° |
| 2026-05-05 14:32 | 52.21714 | 15.77190 | 36861 ft | 484 kts | 76° |
| 2026-05-05 14:33 | 52.23331 | 15.87779 | 36862 ft | 484 kts | 75° |
| 2026-05-05 14:33 | 52.25428 | 15.98205 | 36864 ft | 483 kts | 70° |
| 2026-05-05 14:34 | 52.27676 | 16.08552 | 36863 ft | 483 kts | 70° |
| 2026-05-05 14:34 | 52.29897 | 16.18912 | 36860 ft | 484 kts | 71° |
| 2026-05-05 14:35 | 52.32088 | 16.29298 | 36854 ft | 484 kts | 71° |
| 2026-05-05 14:35 | 52.34260 | 16.39703 | 36849 ft | 484 kts | 71° |
| 2026-05-05 14:36 | 52.36430 | 16.50139 | 36852 ft | 484 kts | 71° |
| 2026-05-05 14:36 | 52.38586 | 16.60572 | 36861 ft | 484 kts | 71° |
| 2026-05-05 14:37 | 52.40735 | 16.71014 | 36860 ft | 484 kts | 71° |
| 2026-05-05 14:37 | 52.42877 | 16.81478 | 36861 ft | 485 kts | 71° |
| 2026-05-05 14:38 | 52.45015 | 16.91972 | 36861 ft | 485 kts | 72° |
| 2026-05-05 14:38 | 52.47141 | 17.02470 | 36864 ft | 485 kts | 72° |
| 2026-05-05 14:39 | 52.49262 | 17.12986 | 36862 ft | 486 kts | 72° |
| 2026-05-05 14:39 | 52.49415 | 17.13745 | 36863 ft | 486 kts | 72° |
| 2026-05-05 14:40 | 52.50933 | 17.21322 | 36861 ft | 485 kts | 72° |
| 2026-05-05 14:40 | 52.53034 | 17.31858 | 36860 ft | 485 kts | 72° |
| 2026-05-05 14:41 | 52.55126 | 17.42399 | 36862 ft | 485 kts | 72° |
| 2026-05-05 14:41 | 52.57208 | 17.52950 | 36859 ft | 485 kts | 72° |
| 2026-05-05 14:42 | 52.59269 | 17.63440 | 36851 ft | 485 kts | 72° |
| 2026-05-05 14:42 | 52.61331 | 17.73988 | 36852 ft | 484 kts | 72° |
| 2026-05-05 14:43 | 52.63377 | 17.84538 | 36851 ft | 484 kts | 73° |
| 2026-05-05 14:43 | 52.65416 | 17.95105 | 36853 ft | 484 kts | 73° |
| 2026-05-05 14:44 | 52.67443 | 18.05644 | 36852 ft | 484 kts | 73° |
| 2026-05-05 14:44 | 52.69473 | 18.16245 | 36852 ft | 485 kts | 73° |
| 2026-05-05 14:45 | 52.71497 | 18.26865 | 36851 ft | 485 kts | 73° |
| 2026-05-05 14:45 | 52.73508 | 18.37487 | 36856 ft | 485 kts | 73° |
| 2026-05-05 14:46 | 52.75514 | 18.48127 | 36850 ft | 485 kts | 73° |
| 2026-05-05 14:46 | 52.77506 | 18.58759 | 36851 ft | 485 kts | 73° |
| 2026-05-05 14:47 | 52.79487 | 18.69392 | 36850 ft | 485 kts | 73° |
| 2026-05-05 14:47 | 52.81462 | 18.80054 | 36841 ft | 485 kts | 73° |
| 2026-05-05 14:48 | 52.83424 | 18.90714 | 36840 ft | 485 kts | 73° |
| 2026-05-05 14:48 | 52.85379 | 19.01385 | 36845 ft | 484 kts | 73° |
| 2026-05-05 14:49 | 52.87320 | 19.12046 | 36841 ft | 485 kts | 73° |
| 2026-05-05 14:49 | 52.89258 | 19.22749 | 36842 ft | 485 kts | 74° |
| 2026-05-05 14:50 | 52.91180 | 19.33446 | 36831 ft | 484 kts | 74° |
| 2026-05-05 14:50 | 52.93094 | 19.44143 | 36830 ft | 485 kts | 74° |
| 2026-05-05 14:51 | 52.94987 | 19.54787 | 36815 ft | 485 kts | 74° |
| 2026-05-05 14:51 | 52.96899 | 19.65593 | 36829 ft | 485 kts | 74° |
| 2026-05-05 14:52 | 52.98772 | 19.76261 | 36818 ft | 485 kts | 74° |
| 2026-05-05 14:52 | 53.00651 | 19.87024 | 36821 ft | 485 kts | 74° |
| 2026-05-05 14:53 | 53.02516 | 19.97764 | 36822 ft | 485 kts | 74° |
| 2026-05-05 14:53 | 53.04378 | 20.08556 | 36817 ft | 485 kts | 74° |
| 2026-05-05 14:54 | 53.06228 | 20.19349 | 36835 ft | 485 kts | 74° |
| 2026-05-05 14:54 | 53.08070 | 20.30150 | 36831 ft | 485 kts | 75° |
| 2026-05-05 14:55 | 53.09899 | 20.40950 | 36828 ft | 485 kts | 75° |
| 2026-05-05 14:55 | 53.11717 | 20.51745 | 36834 ft | 485 kts | 75° |
| 2026-05-05 14:56 | 53.13524 | 20.62543 | 36843 ft | 484 kts | 75° |
| 2026-05-05 14:56 | 53.15318 | 20.73346 | 36840 ft | 484 kts | 75° |
| 2026-05-05 14:57 | 53.17104 | 20.84170 | 36843 ft | 484 kts | 75° |
| 2026-05-05 14:57 | 53.18881 | 20.95005 | 36852 ft | 485 kts | 75° |
| 2026-05-05 14:58 | 53.20652 | 21.05858 | 36851 ft | 485 kts | 75° |
| 2026-05-05 14:58 | 53.22411 | 21.16723 | 36854 ft | 485 kts | 75° |
| 2026-05-05 14:59 | 53.24156 | 21.27593 | 36847 ft | 485 kts | 75° |
| 2026-05-05 14:59 | 53.24160 | 21.27617 | 36845 ft | 485 kts | 75° |
| 2026-05-05 15:00 | 53.25016 | 21.32955 | 36854 ft | 485 kts | 75° |
| 2026-05-05 15:00 | 53.27046 | 21.45684 | 36848 ft | 485 kts | 75° |
| 2026-05-05 15:01 | 53.28768 | 21.56566 | 36853 ft | 485 kts | 76° |
| 2026-05-05 15:01 | 53.30480 | 21.67470 | 36855 ft | 485 kts | 76° |
| 2026-05-05 15:02 | 53.32185 | 21.78384 | 36847 ft | 485 kts | 76° |
| 2026-05-05 15:02 | 53.33878 | 21.89316 | 36852 ft | 485 kts | 76° |
| 2026-05-05 15:03 | 53.35276 | 21.98393 | 36851 ft | 485 kts | 76° |
| 2026-05-05 15:03 | 53.36954 | 22.09335 | 36850 ft | 485 kts | 76° |
| 2026-05-05 15:04 | 53.38890 | 22.22058 | 36850 ft | 485 kts | 76° |
| 2026-05-05 15:04 | 53.40273 | 22.31225 | 36852 ft | 485 kts | 76° |
| 2026-05-05 15:05 | 53.43000 | 22.49453 | 36854 ft | 485 kts | 76° |
| 2026-05-05 15:06 | 53.44367 | 22.58648 | 36847 ft | 485 kts | 76° |
| 2026-05-05 15:06 | 53.45981 | 22.69603 | 36853 ft | 484 kts | 77° |
| 2026-05-05 15:07 | 53.47591 | 22.80592 | 36850 ft | 484 kts | 77° |
| 2026-05-05 15:07 | 53.49176 | 22.91487 | 36858 ft | 483 kts | 77° |
| 2026-05-05 15:08 | 53.50758 | 23.02449 | 36861 ft | 483 kts | 77° |
| 2026-05-05 15:08 | 53.52331 | 23.13400 | 36861 ft | 482 kts | 77° |
| 2026-05-05 15:09 | 53.53890 | 23.24377 | 36862 ft | 482 kts | 77° |
| 2026-05-05 15:09 | 53.55439 | 23.35344 | 36863 ft | 483 kts | 77° |
| 2026-05-05 15:10 | 53.56989 | 23.46374 | 36861 ft | 484 kts | 77° |
| 2026-05-05 15:10 | 53.58537 | 23.57477 | 36863 ft | 485 kts | 77° |
| 2026-05-05 15:11 | 53.59606 | 23.68586 | 36856 ft | 484 kts | 87° |
| 2026-05-05 15:11 | 53.59945 | 23.79884 | 36861 ft | 484 kts | 88° |
| 2026-05-05 15:12 | 53.60305 | 23.91213 | 36861 ft | 484 kts | 88° |
| 2026-05-05 15:12 | 53.60776 | 24.02518 | 36859 ft | 485 kts | 83° |
| 2026-05-05 15:13 | 53.62229 | 24.13602 | 36860 ft | 485 kts | 72° |
| 2026-05-05 15:13 | 53.64352 | 24.24388 | 36863 ft | 485 kts | 72° |
| 2026-05-05 15:14 | 53.66469 | 24.35189 | 36858 ft | 485 kts | 72° |
| 2026-05-05 15:14 | 53.68539 | 24.45993 | 36864 ft | 485 kts | 72° |
| 2026-05-05 15:15 | 53.70590 | 24.56849 | 36861 ft | 485 kts | 72° |
| 2026-05-05 15:15 | 53.72627 | 24.67696 | 36859 ft | 485 kts | 73° |
| 2026-05-05 15:16 | 53.74655 | 24.78547 | 36863 ft | 484 kts | 73° |
| 2026-05-05 15:16 | 53.76671 | 24.89411 | 36865 ft | 484 kts | 73° |
| 2026-05-05 15:17 | 53.78681 | 25.00270 | 36861 ft | 483 kts | 73° |
| 2026-05-05 15:17 | 53.80604 | 25.11152 | 36856 ft | 483 kts | 76° |
| 2026-05-05 15:18 | 53.82194 | 25.22178 | 36859 ft | 482 kts | 77° |
| 2026-05-05 15:18 | 53.83721 | 25.33221 | 36860 ft | 481 kts | 77° |
| 2026-05-05 15:19 | 53.85245 | 25.44175 | 36861 ft | 481 kts | 77° |
| 2026-05-05 15:19 | 53.86178 | 25.50842 | 36861 ft | 481 kts | 77° |
| 2026-05-05 15:20 | 53.86289 | 25.51641 | 36860 ft | 481 kts | 77° |
| 2026-05-05 15:20 | 53.87830 | 25.62674 | 36863 ft | 481 kts | 77° |
| 2026-05-05 15:21 | 53.89360 | 25.73724 | 36860 ft | 481 kts | 77° |
| 2026-05-05 15:21 | 53.90877 | 25.84767 | 36861 ft | 481 kts | 77° |
| 2026-05-05 15:22 | 53.92385 | 25.95834 | 36859 ft | 482 kts | 77° |
| 2026-05-05 15:22 | 53.93884 | 26.06911 | 36865 ft | 482 kts | 77° |
| 2026-05-05 15:23 | 53.95375 | 26.18031 | 36859 ft | 482 kts | 77° |
| 2026-05-05 15:23 | 53.96856 | 26.29132 | 36863 ft | 483 kts | 77° |
| 2026-05-05 15:24 | 53.98327 | 26.40265 | 36861 ft | 483 kts | 78° |
| 2026-05-05 15:24 | 53.99786 | 26.51374 | 36862 ft | 482 kts | 78° |
| 2026-05-05 15:25 | 54.01237 | 26.62522 | 36861 ft | 482 kts | 78° |
| 2026-05-05 15:25 | 54.02678 | 26.73662 | 36859 ft | 482 kts | 78° |
| 2026-05-05 15:26 | 54.04104 | 26.84769 | 36862 ft | 481 kts | 78° |
| 2026-05-05 15:26 | 54.05520 | 26.95819 | 36868 ft | 480 kts | 78° |
| 2026-05-05 15:27 | 54.06942 | 27.07014 | 36857 ft | 480 kts | 78° |
| 2026-05-05 15:27 | 54.08343 | 27.18118 | 36862 ft | 479 kts | 78° |
| 2026-05-05 15:28 | 54.09738 | 27.29212 | 36863 ft | 479 kts | 77° |
| 2026-05-05 15:28 | 54.11817 | 27.39880 | 36859 ft | 478 kts | 65° |
| 2026-05-05 15:29 | 54.14630 | 27.50199 | 36864 ft | 477 kts | 65° |
| 2026-05-05 15:29 | 54.17419 | 27.60440 | 36858 ft | 475 kts | 65° |
| 2026-05-05 15:30 | 54.20161 | 27.70684 | 36861 ft | 474 kts | 65° |
| 2026-05-05 15:30 | 54.22872 | 27.80941 | 36858 ft | 473 kts | 66° |
| 2026-05-05 15:31 | 54.25570 | 27.91191 | 36860 ft | 472 kts | 66° |
| 2026-05-05 15:31 | 54.28256 | 28.01434 | 36862 ft | 472 kts | 66° |
| 2026-05-05 15:32 | 54.30913 | 28.11621 | 36862 ft | 472 kts | 66° |
| 2026-05-05 15:32 | 54.33582 | 28.21896 | 36860 ft | 472 kts | 66° |
| 2026-05-05 15:33 | 54.36246 | 28.32192 | 36860 ft | 473 kts | 66° |
| 2026-05-05 15:33 | 54.38906 | 28.42524 | 36866 ft | 474 kts | 66° |
| 2026-05-05 15:34 | 54.41560 | 28.52881 | 36872 ft | 474 kts | 66° |
| 2026-05-05 15:34 | 54.44210 | 28.63271 | 36871 ft | 476 kts | 66° |
| 2026-05-05 15:35 | 54.46854 | 28.73685 | 36872 ft | 478 kts | 66° |
| 2026-05-05 15:35 | 54.49538 | 28.84186 | 36870 ft | 480 kts | 65° |
| 2026-05-05 15:36 | 54.52466 | 28.94521 | 36871 ft | 481 kts | 63° |
| 2026-05-05 15:36 | 54.55449 | 29.04868 | 36873 ft | 483 kts | 63° |
| 2026-05-05 15:37 | 54.58387 | 29.15276 | 36870 ft | 484 kts | 64° |
| 2026-05-05 15:37 | 54.61307 | 29.25754 | 36870 ft | 485 kts | 64° |
| 2026-05-05 15:38 | 54.64223 | 29.36247 | 36856 ft | 485 kts | 64° |
| 2026-05-05 15:38 | 54.67209 | 29.46690 | 36846 ft | 484 kts | 59° |
| 2026-05-05 15:39 | 54.71016 | 29.56230 | 36854 ft | 482 kts | 51° |
| 2026-05-05 15:39 | 54.73199 | 29.61023 | 36847 ft | 481 kts | 50° |
| 2026-05-05 15:40 | 54.74111 | 29.63017 | 36847 ft | 481 kts | 50° |
| 2026-05-05 15:40 | 54.78257 | 29.72130 | 36844 ft | 482 kts | 51° |
| 2026-05-05 15:41 | 54.82370 | 29.81296 | 36845 ft | 482 kts | 51° |
| 2026-05-05 15:41 | 54.86442 | 29.90463 | 36836 ft | 483 kts | 51° |
| 2026-05-05 15:42 | 54.90554 | 29.99774 | 36842 ft | 482 kts | 51° |
| 2026-05-05 15:42 | 54.94607 | 30.08979 | 36839 ft | 483 kts | 51° |
| 2026-05-05 15:43 | 54.98705 | 30.18315 | 36835 ft | 483 kts | 51° |
| 2026-05-05 15:43 | 55.02775 | 30.27617 | 36838 ft | 483 kts | 51° |
| 2026-05-05 15:44 | 55.06822 | 30.36914 | 36843 ft | 484 kts | 52° |
| 2026-05-05 15:44 | 55.10892 | 30.46281 | 36837 ft | 485 kts | 52° |
| 2026-05-05 15:45 | 55.14942 | 30.55665 | 36832 ft | 481 kts | 52° |
| 2026-05-05 15:45 | 55.18982 | 30.65040 | 36835 ft | 484 kts | 51° |
| 2026-05-05 15:46 | 55.23044 | 30.74483 | 36830 ft | 486 kts | 52° |
| 2026-05-05 15:46 | 55.26941 | 30.84197 | 36835 ft | 488 kts | 59° |
| 2026-05-05 15:47 | 55.29816 | 30.94993 | 36833 ft | 490 kts | 70° |
| 2026-05-05 15:47 | 55.31937 | 31.06357 | 36838 ft | 490 kts | 72° |
| 2026-05-05 15:48 | 55.34052 | 31.17738 | 36830 ft | 490 kts | 71° |
| 2026-05-05 15:48 | 55.36209 | 31.29095 | 36825 ft | 490 kts | 71° |
| 2026-05-05 15:49 | 55.38345 | 31.40437 | 36836 ft | 489 kts | 71° |
| 2026-05-05 15:49 | 55.40109 | 31.49915 | 36821 ft | 489 kts | 71° |
| 2026-05-05 15:50 | 55.42213 | 31.61279 | 36821 ft | 489 kts | 71° |
| 2026-05-05 15:50 | 55.44312 | 31.72681 | 36831 ft | 489 kts | 71° |
| 2026-05-05 15:51 | 55.46400 | 31.84092 | 36826 ft | 489 kts | 71° |
| 2026-05-05 15:51 | 55.48480 | 31.95510 | 36816 ft | 490 kts | 71° |
| 2026-05-05 15:52 | 55.50550 | 32.06956 | 36831 ft | 490 kts | 72° |
| 2026-05-05 15:52 | 55.52608 | 32.18405 | 36821 ft | 490 kts | 72° |
| 2026-05-05 15:53 | 55.54658 | 32.29890 | 36817 ft | 490 kts | 72° |
| 2026-05-05 15:53 | 55.56698 | 32.41380 | 36820 ft | 490 kts | 72° |
| 2026-05-05 15:54 | 55.58724 | 32.52874 | 36816 ft | 490 kts | 72° |
| 2026-05-05 15:54 | 55.60741 | 32.64370 | 36818 ft | 490 kts | 72° |
| 2026-05-05 15:55 | 55.62748 | 32.75908 | 36834 ft | 490 kts | 72° |
| 2026-05-05 15:55 | 55.64742 | 32.87431 | 36817 ft | 489 kts | 72° |
| 2026-05-05 15:56 | 55.66723 | 32.98957 | 36816 ft | 489 kts | 72° |
| 2026-05-05 15:56 | 55.68691 | 33.10486 | 36832 ft | 489 kts | 73° |
| 2026-05-05 15:57 | 55.70652 | 33.22029 | 36816 ft | 489 kts | 73° |
| 2026-05-05 15:57 | 55.72595 | 33.33556 | 36826 ft | 488 kts | 73° |
| 2026-05-05 15:58 | 55.74522 | 33.45110 | 36830 ft | 488 kts | 73° |
| 2026-05-05 15:58 | 55.76438 | 33.56672 | 36817 ft | 488 kts | 73° |
| 2026-05-05 15:59 | 55.78347 | 33.68245 | 36834 ft | 488 kts | 73° |
| 2026-05-05 15:59 | 55.79527 | 33.75434 | 36822 ft | 488 kts | 73° |
| 2026-05-05 16:00 | 55.79654 | 33.76213 | 36820 ft | 488 kts | 73° |
| 2026-05-05 16:00 | 55.81560 | 33.87903 | 36003 ft | 500 kts | 73° |
| 2026-05-05 16:00 | 55.82520 | 33.93827 | 35312 ft | 499 kts | 73° |
| 2026-05-05 16:01 | 55.83482 | 33.99774 | 34492 ft | 500 kts | 74° |
| 2026-05-05 16:01 | 55.84440 | 34.05717 | 33664 ft | 501 kts | 74° |
| 2026-05-05 16:01 | 55.85398 | 34.11692 | 32818 ft | 502 kts | 74° |
| 2026-05-05 16:01 | 55.86340 | 34.17584 | 31947 ft | 503 kts | 74° |
| 2026-05-05 16:02 | 55.87308 | 34.23654 | 31011 ft | 504 kts | 73° |
| 2026-05-05 16:02 | 55.88247 | 34.29597 | 30213 ft | 505 kts | 75° |
| 2026-05-05 16:02 | 55.88990 | 34.35628 | 29630 ft | 503 kts | 80° |
| 2026-05-05 16:02 | 55.89421 | 34.41801 | 29011 ft | 502 kts | 86° |
| 2026-05-05 16:03 | 55.89538 | 34.48024 | 28402 ft | 501 kts | 89° |
| 2026-05-05 16:03 | 55.89614 | 34.54203 | 27811 ft | 499 kts | 89° |
| 2026-05-05 16:03 | 55.89696 | 34.60363 | 27212 ft | 497 kts | 89° |
| 2026-05-05 16:03 | 55.89791 | 34.66520 | 26622 ft | 496 kts | 89° |
| 2026-05-05 16:04 | 55.89893 | 34.72636 | 26027 ft | 494 kts | 88° |
| 2026-05-05 16:04 | 55.89997 | 34.78743 | 25439 ft | 491 kts | 88° |
| 2026-05-05 16:04 | 55.90100 | 34.84810 | 24842 ft | 489 kts | 88° |
| 2026-05-05 16:04 | 55.90198 | 34.90838 | 24259 ft | 486 kts | 88° |
| 2026-05-05 16:05 | 55.90293 | 34.96861 | 23672 ft | 484 kts | 89° |
| 2026-05-05 16:05 | 55.90384 | 35.02832 | 23090 ft | 481 kts | 89° |
| 2026-05-05 16:05 | 55.90473 | 35.08777 | 22566 ft | 477 kts | 89° |
| 2026-05-05 16:05 | 55.90562 | 35.14658 | 22067 ft | 469 kts | 89° |
| 2026-05-05 16:06 | 55.90648 | 35.20388 | 21394 ft | 457 kts | 89° |
| 2026-05-05 16:06 | 55.90730 | 35.26038 | 20842 ft | 455 kts | 89° |
| 2026-05-05 16:06 | 55.90809 | 35.31670 | 20280 ft | 455 kts | 89° |
| 2026-05-05 16:06 | 55.90884 | 35.37292 | 19724 ft | 454 kts | 89° |
| 2026-05-05 16:07 | 55.90955 | 35.42918 | 19224 ft | 452 kts | 89° |
| 2026-05-05 16:07 | 55.91021 | 35.48493 | 18702 ft | 450 kts | 89° |
| 2026-05-05 16:07 | 55.91086 | 35.54046 | 18307 ft | 447 kts | 89° |
| 2026-05-05 16:07 | 55.91151 | 35.59548 | 17869 ft | 439 kts | 89° |
| 2026-05-05 16:08 | 55.91212 | 35.64934 | 17319 ft | 433 kts | 89° |
| 2026-05-05 16:08 | 55.91263 | 35.70152 | 17139 ft | 406 kts | 89° |
| 2026-05-05 16:08 | 55.91310 | 35.75016 | 16912 ft | 382 kts | 89° |
| 2026-05-05 16:08 | 55.91353 | 35.79626 | 16598 ft | 362 kts | 89° |
| 2026-05-05 16:09 | 55.91395 | 35.83991 | 16432 ft | 345 kts | 89° |
| 2026-05-05 16:09 | 55.91551 | 35.88251 | 16107 ft | 344 kts | 83° |
| 2026-05-05 16:09 | 55.91887 | 35.92430 | 15777 ft | 347 kts | 81° |
| 2026-05-05 16:09 | 55.92274 | 35.96774 | 15419 ft | 355 kts | 81° |
| 2026-05-05 16:10 | 55.92646 | 36.01164 | 15051 ft | 358 kts | 82° |
| 2026-05-05 16:10 | 55.92986 | 36.05491 | 14666 ft | 356 kts | 82° |
| 2026-05-05 16:10 | 55.93319 | 36.09907 | 14285 ft | 355 kts | 82° |
| 2026-05-05 16:10 | 55.93737 | 36.14195 | 13889 ft | 347 kts | 71° |
| 2026-05-05 16:11 | 55.94879 | 36.17862 | 13534 ft | 342 kts | 47° |
| 2026-05-05 16:11 | 56.00719 | 36.24386 | 12381 ft | 329 kts | 44° |
| 2026-05-05 16:12 | 56.01890 | 36.27830 | 12104 ft | 325 kts | 75° |
| 2026-05-05 16:12 | 56.02766 | 36.35577 | 11464 ft | 315 kts | 76° |
| 2026-05-05 16:13 | 56.04410 | 36.46829 | 10470 ft | 310 kts | 75° |
| 2026-05-05 16:13 | 56.04950 | 36.50553 | 10124 ft | 309 kts | 76° |
| 2026-05-05 16:13 | 56.05483 | 36.54274 | 9777 ft | 308 kts | 76° |
| 2026-05-05 16:14 | 56.06536 | 36.61672 | 9132 ft | 305 kts | 76° |
| 2026-05-05 16:14 | 56.07564 | 36.69000 | 8497 ft | 302 kts | 76° |
| 2026-05-05 16:15 | 56.08576 | 36.76261 | 7883 ft | 299 kts | 76° |
| 2026-05-05 16:15 | 56.09576 | 36.83445 | 7225 ft | 297 kts | 76° |
| 2026-05-05 16:16 | 56.10559 | 36.90560 | 6630 ft | 293 kts | 76° |
| 2026-05-05 16:16 | 56.11501 | 36.97410 | 6433 ft | 273 kts | 76° |
| 2026-05-05 16:17 | 56.12376 | 37.03803 | 6134 ft | 258 kts | 76° |
| 2026-05-05 16:17 | 56.12801 | 37.06912 | 5889 ft | 255 kts | 76° |
| 2026-05-05 16:18 | 56.13624 | 37.12960 | 5751 ft | 244 kts | 76° |
| 2026-05-05 16:18 | 56.14035 | 37.15981 | 5790 ft | 255 kts | 76° |
| 2026-05-05 16:18 | 56.14879 | 37.22244 | 5797 ft | 258 kts | 76° |
| 2026-05-05 16:19 | 56.15301 | 37.25367 | 5791 ft | 256 kts | 76° |
| 2026-05-05 16:19 | 56.15718 | 37.28458 | 5788 ft | 254 kts | 76° |
| 2026-05-05 16:19 | 56.16539 | 37.34581 | 5784 ft | 251 kts | 76° |
| 2026-05-05 16:20 | 56.17363 | 37.40748 | 5784 ft | 257 kts | 77° |
| 2026-05-05 16:20 | 56.18190 | 37.47000 | 5584 ft | 261 kts | 76° |
| 2026-05-05 16:21 | 56.19034 | 37.53294 | 5151 ft | 252 kts | 76° |
| 2026-05-05 16:22 | 56.18222 | 37.61587 | 4847 ft | 223 kts | 136° |
| 2026-05-05 16:22 | 56.16113 | 37.65432 | 4614 ft | 213 kts | 137° |
| 2026-05-05 16:23 | 56.14041 | 37.69206 | 4419 ft | 213 kts | 136° |
| 2026-05-05 16:23 | 56.13003 | 37.71106 | 4316 ft | 213 kts | 136° |
| 2026-05-05 16:23 | 56.10925 | 37.74898 | 4116 ft | 214 kts | 136° |
| 2026-05-05 16:24 | 56.09853 | 37.76677 | 3988 ft | 210 kts | 150° |
| 2026-05-05 16:24 | 56.08469 | 37.77237 | 3832 ft | 202 kts | 192° |
| 2026-05-05 16:24 | 56.05844 | 37.75833 | 3583 ft | 195 kts | 200° |
| 2026-05-05 16:25 | 56.04560 | 37.75108 | 3415 ft | 192 kts | 200° |
| 2026-05-05 16:25 | 56.02103 | 37.73387 | 3090 ft | 188 kts | 226° |
| 2026-05-05 16:25 | 56.01547 | 37.71363 | 2968 ft | 183 kts | 259° |
| 2026-05-05 16:26 | 56.00910 | 37.66868 | 2674 ft | 186 kts | 256° |
| 2026-05-05 16:26 | 56.00285 | 37.62679 | 2346 ft | 159 kts | 256° |
| 2026-05-05 16:27 | 56.00005 | 37.60794 | 2254 ft | 157 kts | 256° |
| 2026-05-05 16:27 | 55.99727 | 37.58912 | 2169 ft | 156 kts | 256° |
| 2026-05-05 16:27 | 55.99449 | 37.57034 | 2073 ft | 156 kts | 256° |
| 2026-05-05 16:27 | 55.99167 | 37.55130 | 1885 ft | 161 kts | 256° |
| 2026-05-05 16:28 | 55.98884 | 37.53220 | 1639 ft | 156 kts | 256° |
| 2026-05-05 16:28 | 55.98618 | 37.51426 | 1422 ft | 150 kts | 256° |
| 2026-05-05 16:28 | 55.98357 | 37.49670 | 1213 ft | 143 kts | 256° |
| 2026-05-05 16:28 | 55.98104 | 37.47973 | 1023 ft | 141 kts | 256° |
| 2026-05-05 16:29 | 55.97852 | 37.46289 | 906 ft | 140 kts | 255° |
| 2026-05-05 16:29 | 55.97603 | 37.44596 | 718 ft | 143 kts | 255° |
| 2026-05-05 16:29 | 55.97359 | 37.42939 | 646 ft | 126 kts | 255° |
| 2026-05-05 16:29 | 55.97181 | 37.41743 | 642 ft | 76 kts | 255° |
| 2026-05-05 16:30 | 55.97079 | 37.41167 | 644 ft | 30 kts | 239° |
| 2026-05-05 16:30 | 55.96962 | 37.40936 | 643 ft | 10 kts | 221° |
| 2026-05-05 16:30 | 55.96933 | 37.40883 | 643 ft | 6 kts | 227° |
| 2026-05-05 16:30 | 55.96906 | 37.40832 | 643 ft | 6 kts | 225° |
| 2026-05-05 16:31 | 55.96904 | 37.40828 | 643 ft | 0 kts | 225° |
| 2026-05-05 16:31 | 55.96890 | 37.40804 | 643 ft | 12 kts | 225° |
| 2026-05-05 16:32 | 55.96823 | 37.40684 | 644 ft | 14 kts | 225° |
| 2026-05-05 16:32 | 55.96785 | 37.40523 | 644 ft | 14 kts | 255° |
| 2026-05-05 16:32 | 55.96760 | 37.40358 | 646 ft | 14 kts | 255° |
| 2026-05-05 16:32 | 55.96735 | 37.40192 | 644 ft | 10 kts | 253° |
| 2026-05-05 16:33 | 55.96697 | 37.40134 | 644 ft | 8 kts | 180° |
| 2026-05-05 16:33 | 55.96639 | 37.40153 | 644 ft | 8 kts | 167° |
| 2026-05-05 16:33 | 55.96595 | 37.40217 | 644 ft | 9 kts | 117° |
| 2026-05-05 16:33 | 55.96577 | 37.40311 | 646 ft | 7 kts | 107° |
| 2026-05-05 16:34 | 55.96571 | 37.40344 | 647 ft | 0 kts | 107° |